Wetterdaten: Woche 11.01.16 - 17.01.16 (KW2)
Datum Zeit Temp. A. Feuchte A. Luftdruck Regen Wind Richtung Taupunkt Windchill Windben
11.01.2016 00:00 1,5 C 81 % 1000,9 hPa 0,3 l/m 0,3 km/h N -1,4 C 1,5 C 4,4 km/h
11.01.2016 01:00 1,3 C 81 % 1000,6 hPa 0,0 l/m 0,1 km/h N -1,6 C 1,3 C 2,0 km/h
11.01.2016 02:00 1,3 C 81 % 1001,1 hPa 0,3 l/m 0,0 km/h N -1,6 C 1,3 C 0,0 km/h
11.01.2016 03:00 1,3 C 81 % 1001,2 hPa 0,0 l/m 0,0 km/h N -1,6 C 1,3 C 0,0 km/h
11.01.2016 04:00 1,3 C 81 % 1001,1 hPa 0,0 l/m 0,0 km/h N -1,6 C 1,3 C 0,0 km/h
11.01.2016 05:00 1,4 C 81 % 1000,8 hPa 0,0 l/m 0,4 km/h N -1,5 C 1,4 C 4,0 km/h
11.01.2016 06:00 1,4 C 81 % 1000,4 hPa 0,0 l/m 0,2 km/h N -1,5 C 1,4 C 2,8 km/h
11.01.2016 07:00 1,4 C 81 % 999,8 hPa 0,0 l/m 0,1 km/h N -1,5 C 1,4 C 3,2 km/h
11.01.2016 08:00 1,3 C 81 % 999,0 hPa 0,0 l/m 0,5 km/h N -1,6 C 1,3 C 4,0 km/h
11.01.2016 09:00 1,4 C 81 % 998,1 hPa 0,0 l/m 1,0 km/h N -1,5 C 1,4 C 7,2 km/h
11.01.2016 10:00 1,8 C 81 % 996,8 hPa 0,0 l/m 1,2 km/h N -1,2 C 1,8 C 8,4 km/h
11.01.2016 11:00 2,2 C 80 % 995,3 hPa 0,0 l/m 1,7 km/h N -0,9 C 2,2 C 8,1 km/h
11.01.2016 12:00 2,6 C 80 % 993,7 hPa 0,0 l/m 0,1 km/h N -0,5 C 2,6 C 2,8 km/h
11.01.2016 13:00 3,3 C 80 % 993,0 hPa 0,0 l/m 0,5 km/h N 0,1 C 3,3 C 5,2 km/h
11.01.2016 14:00 3,9 C 80 % 992,6 hPa 0,0 l/m 1,5 km/h N 0,8 C 3,9 C 6,0 km/h
11.01.2016 15:00 4,6 C 80 % 992,6 hPa 0,0 l/m 0,1 km/h N 1,5 C 4,6 C 3,2 km/h
11.01.2016 16:00 5,2 C 80 % 992,4 hPa 0,8 l/m 2,2 km/h N 1,9 C 5,2 C 8,9 km/h
11.01.2016 17:00 6,8 C 79 % 992,3 hPa 0,3 l/m 5,3 km/h N 3,4 C 6,8 C 16,5 km/h
11.01.2016 18:00 7,0 C 79 % 992,0 hPa 0,3 l/m 0,8 km/h N 3,7 C 7,0 C 8,5 km/h
11.01.2016 19:00 7,2 C 81 % 991,6 hPa 0,0 l/m 5,1 km/h N 4,2 C 6,2 C 17,7 km/h
11.01.2016 20:00 8,7 C 77 % 991,2 hPa 0,0 l/m 6,8 km/h N 4,8 C 7,8 C 21,7 km/h
11.01.2016 21:00 8,9 C 71 % 991,4 hPa 0,0 l/m 8,3 km/h N 3,9 C 7,0 C 25,8 km/h
11.01.2016 22:00 8,4 C 70 % 992,3 hPa 0,0 l/m 1,3 km/h N 3,2 C 8,4 C 11,3 km/h
11.01.2016 23:00 9,0 C 66 % 992,1 hPa 0,0 l/m 9,3 km/h N 3,0 C 7,1 C 26,9 km/h
12.01.2016 00:00 9,4 C 61 % 992,3 hPa 0,0 l/m 9,3 km/h N 2,3 C 7,4 C 26,5 km/h
12.01.2016 01:00 9,3 C 61 % 992,6 hPa 0,0 l/m 7,3 km/h N 2,2 C 8,3 C 25,0 km/h
12.01.2016 02:00 8,7 C 66 % 993,6 hPa 0,0 l/m 12,0 km/h N 2,7 C 5,0 C 30,6 km/h
12.01.2016 03:00 8,2 C 66 % 993,4 hPa 0,0 l/m 12,9 km/h N 2,3 C 4,0 C 39,8 km/h
12.01.2016 04:00 8,2 C 62 % 993,2 hPa 0,0 l/m 11,2 km/h N 1,4 C 4,9 C 34,6 km/h
12.01.2016 05:00 8,0 C 61 % 992,9 hPa 0,0 l/m 14,5 km/h N 1,0 C 3,0 C 40,3 km/h
12.01.2016 06:00 7,7 C 65 % 993,7 hPa 0,0 l/m 10,7 km/h N 1,5 C 4,6 C 34,6 km/h
12.01.2016 07:00 7,6 C 65 % 994,4 hPa 0,0 l/m 8,9 km/h N 1,5 C 5,8 C 29,4 km/h
12.01.2016 08:00 7,5 C 63 % 995,3 hPa 0,0 l/m 4,5 km/h N 1,0 C 7,4 C 22,5 km/h
12.01.2016 09:00 8,8 C 57 % 995,3 hPa 0,0 l/m 9,3 km/h N 0,7 C 6,8 C 27,8 km/h
12.01.2016 10:00 9,9 C 54 % 995,5 hPa 0,0 l/m 14,9 km/h N 0,9 C 5,2 C 39,8 km/h
12.01.2016 11:00 9,9 C 56 % 995,8 hPa 0,0 l/m 15,7 km/h N 1,4 C 4,8 C 37,0 km/h
12.01.2016 12:00 10,1 C 54 % 996,0 hPa 0,0 l/m 14,3 km/h N 1,2 C 5,6 C 32,6 km/h
12.01.2016 13:00 9,7 C 57 % 996,5 hPa 0,0 l/m 16,4 km/h N 1,6 C 4,2 C 37,0 km/h
12.01.2016 14:00 9,3 C 59 % 997,8 hPa 0,0 l/m 13,4 km/h N 1,7 C 5,0 C 33,4 km/h
12.01.2016 15:00 8,0 C 65 % 998,7 hPa 0,0 l/m 14,4 km/h N 1,8 C 3,2 C 37,4 km/h
12.01.2016 16:00 7,3 C 66 % 999,5 hPa 0,0 l/m 9,9 km/h N 1,2 C 4,9 C 28,1 km/h
12.01.2016 17:00 6,8 C 68 % 1000,7 hPa 0,0 l/m 8,5 km/h N 1,3 C 5,2 C 27,0 km/h
12.01.2016 18:00 6,7 C 69 % 1001,0 hPa 0,0 l/m 10,7 km/h N 1,3 C 3,6 C 33,4 km/h
12.01.2016 19:00 6,9 C 67 % 1001,2 hPa 0,0 l/m 10,4 km/h N 1,2 C 4,2 C 32,2 km/h
12.01.2016 20:00 7,2 C 66 % 1001,4 hPa 0,0 l/m 16,2 km/h N 1,3 C 1,2 C 38,2 km/h
12.01.2016 21:00 7,0 C 68 % 1002,4 hPa 0,0 l/m 10,9 km/h N 1,5 C 3,8 C 28,6 km/h
12.01.2016 22:00 7,2 C 69 % 1003,2 hPa 0,0 l/m 8,2 km/h N 1,9 C 5,8 C 24,1 km/h
12.01.2016 23:00 7,3 C 66 % 1003,5 hPa 0,0 l/m 9,3 km/h N 1,3 C 5,2 C 29,0 km/h
13.01.2016 00:00 7,2 C 65 % 1003,7 hPa 0,0 l/m 13,3 km/h N 1,0 C 2,7 C 34,6 km/h
13.01.2016 01:00 6,5 C 66 % 1004,1 hPa 0,0 l/m 7,4 km/h N 0,6 C 5,4 C 25,0 km/h
13.01.2016 02:00 6,6 C 66 % 1004,6 hPa 0,0 l/m 10,9 km/h N 0,6 C 3,2 C 27,0 km/h
13.01.2016 03:00 6,2 C 67 % 1004,9 hPa 0,0 l/m 10,6 km/h N 0,5 C 3,0 C 31,4 km/h
13.01.2016 04:00 6,2 C 66 % 1005,4 hPa 0,0 l/m 9,8 km/h N 0,3 C 3,5 C 29,4 km/h
13.01.2016 05:00 6,0 C 64 % 1005,6 hPa 0,0 l/m 8,1 km/h N -0,2 C 4,7 C 28,6 km/h
13.01.2016 06:00 5,8 C 65 % 1005,8 hPa 0,0 l/m 11,3 km/h N -0,2 C 2,2 C 33,4 km/h
13.01.2016 07:00 5,2 C 68 % 1006,3 hPa 0,0 l/m 9,8 km/h N -0,3 C 2,5 C 33,0 km/h
13.01.2016 08:00 5,3 C 65 % 1006,9 hPa 0,0 l/m 9,0 km/h N -0,8 C 3,2 C 32,6 km/h
13.01.2016 09:00 5,4 C 67 % 1007,4 hPa 0,0 l/m 10,9 km/h N -0,3 C 2,0 C 32,6 km/h
13.01.2016 10:00 5,8 C 66 % 1007,8 hPa 0,0 l/m 10,2 km/h N -0,2 C 2,9 C 24,1 km/h
13.01.2016 11:00 6,7 C 61 % 1007,3 hPa 0,0 l/m 9,0 km/h N -0,4 C 4,7 C 27,8 km/h
13.01.2016 12:00 7,9 C 56 % 1007,0 hPa 0,0 l/m 12,3 km/h N -0,2 C 4,0 C 33,4 km/h
13.01.2016 13:00 8,0 C 59 % 1006,8 hPa 0,0 l/m 12,6 km/h N 0,4 C 4,0 C 35,4 km/h
13.01.2016 14:00 7,1 C 64 % 1007,2 hPa 0,0 l/m 15,4 km/h N 0,8 C 1,5 C 34,2 km/h
13.01.2016 15:00 6,8 C 66 % 1008,1 hPa 0,0 l/m 15,9 km/h N 0,8 C 0,9 C 38,6 km/h
13.01.2016 16:00 6,2 C 69 % 1008,6 hPa 0,0 l/m 17,9 km/h N 0,9 C -0,7 C 45,9 km/h
13.01.2016 17:00 6,1 C 69 % 1008,9 hPa 0,0 l/m 21,8 km/h N 0,8 C -2,4 C 49,5 km/h
13.01.2016 18:00 6,2 C 67 % 1009,6 hPa 0,0 l/m 27,3 km/h N 0,6 C -3,9 C 53,1 km/h
13.01.2016 19:00 4,8 C 77 % 1011,3 hPa 0,5 l/m 18,4 km/h N 1,2 C -2,4 C 45,5 km/h
13.01.2016 20:00 4,9 C 76 % 1012,0 hPa 0,3 l/m 18,8 km/h N 1,1 C -2,8 C 41,4 km/h
13.01.2016 21:00 4,1 C 80 % 1012,5 hPa 1,0 l/m 21,5 km/h N 1,0 C -4,9 C 47,5 km/h
13.01.2016 22:00 5,0 C 73 % 1012,5 hPa 0,0 l/m 24,0 km/h N 0,5 C -4,6 C 53,5 km/h
13.01.2016 23:00 4,9 C 71 % 1013,4 hPa 0,0 l/m 23,7 km/h N 0,2 C -4,6 C 47,5 km/h
14.01.2016 00:00 5,0 C 70 % 1014,3 hPa 0,0 l/m 20,6 km/h N -0,0 C -3,3 C 42,7 km/h
14.01.2016 01:00 4,8 C 68 % 1015,4 hPa 0,0 l/m 13,3 km/h N -0,6 C -0,2 C 33,4 km/h
14.01.2016 02:00 4,8 C 66 % 1015,8 hPa 0,0 l/m 9,9 km/h N -0,9 C 2,0 C 28,2 km/h
14.01.2016 03:00 4,9 C 65 % 1016,3 hPa 0,0 l/m 8,1 km/h N -1,2 C 3,5 C 24,5 km/h
14.01.2016 04:00 4,9 C 64 % 1016,5 hPa 0,0 l/m 7,8 km/h N -1,4 C 3,6 C 24,5 km/h
14.01.2016 05:00 4,8 C 63 % 1016,8 hPa 0,0 l/m 9,8 km/h N -1,6 C 2,0 C 25,3 km/h
14.01.2016 06:00 4,7 C 62 % 1017,1 hPa 0,0 l/m 9,7 km/h N -1,9 C 1,9 C 24,1 km/h
14.01.2016 07:00 4,3 C 62 % 1016,5 hPa 0,0 l/m 10,7 km/h N -2,4 C 0,8 C 22,1 km/h
14.01.2016 08:00 4,0 C 63 % 1016,7 hPa 0,0 l/m 4,8 km/h N -2,5 C 3,9 C 15,3 km/h
14.01.2016 09:00 5,0 C 57 % 1016,7 hPa 0,0 l/m 5,8 km/h N -2,9 C 4,7 C 16,1 km/h
14.01.2016 10:00 5,6 C 55 % 1016,4 hPa 0,0 l/m 1,5 km/h N -2,8 C 5,6 C 6,8 km/h
14.01.2016 11:00 6,5 C 52 % 1015,5 hPa 0,0 l/m 1,3 km/h N -2,7 C 6,5 C 6,4 km/h
14.01.2016 12:00 7,7 C 51 % 1014,6 hPa 0,0 l/m 0,8 km/h N -1,9 C 7,7 C 5,6 km/h
14.01.2016 13:00 7,5 C 51 % 1013,6 hPa 0,0 l/m 1,6 km/h N -1,9 C 7,5 C 8,0 km/h
14.01.2016 14:00 7,3 C 53 % 1012,3 hPa 0,0 l/m 4,4 km/h N -1,8 C 7,3 C 12,1 km/h
14.01.2016 15:00 6,6 C 56 % 1011,3 hPa 0,0 l/m 3,4 km/h N -1,5 C 6,6 C 10,1 km/h
14.01.2016 16:00 5,1 C 61 % 1010,4 hPa 0,0 l/m 0,8 km/h N -1,9 C 5,1 C 6,4 km/h
14.01.2016 17:00 3,8 C 66 % 1009,8 hPa 0,0 l/m 0,8 km/h N -2,0 C 3,8 C 5,2 km/h
14.01.2016 18:00 2,8 C 70 % 1009,2 hPa 0,0 l/m 0,6 km/h N -2,0 C 2,8 C 4,8 km/h
14.01.2016 19:00 1,2 C 73 % 1008,5 hPa 0,0 l/m 0,0 km/h N -3,0 C 1,2 C 0,0 km/h
14.01.2016 20:00 -0,3 C 77 % 1008,0 hPa 0,0 l/m 0,0 km/h N -3,9 C -0,3 C 0,0 km/h
14.01.2016 21:00 -1,2 C 80 % 1007,7 hPa 0,0 l/m 0,0 km/h N -4,2 C -1,2 C 0,0 km/h
14.01.2016 22:00 -0,7 C 83 % 1007,3 hPa 0,0 l/m 0,0 km/h N -3,3 C -0,7 C 0,0 km/h
14.01.2016 23:00 -0,5 C 83 % 1007,3 hPa 0,0 l/m 0,2 km/h N -3,0 C -0,5 C 1,2 km/h
15.01.2016 00:00 -0,5 C 83 % 1007,2 hPa 0,0 l/m 0,4 km/h N -3,0 C -0,5 C 2,8 km/h
15.01.2016 01:00 1,6 C 77 % 1007,2 hPa 0,0 l/m 5,8 km/h N -2,0 C -0,0 C 19,3 km/h
15.01.2016 02:00 3,9 C 70 % 1007,2 hPa 0,0 l/m 12,9 km/h N -1,0 C -1,0 C 31,8 km/h
15.01.2016 03:00 3,7 C 75 % 1008,0 hPa 0,0 l/m 14,6 km/h N -0,4 C -2,3 C 30,6 km/h
15.01.2016 04:00 3,8 C 74 % 1008,3 hPa 0,0 l/m 15,1 km/h N -0,4 C -2,4 C 31,4 km/h
15.01.2016 05:00 3,9 C 70 % 1008,5 hPa 0,0 l/m 11,5 km/h N -1,1 C -0,2 C 26,2 km/h
15.01.2016 06:00 3,8 C 69 % 1008,5 hPa 0,0 l/m 6,8 km/h N -1,5 C 2,9 C 17,3 km/h
15.01.2016 07:00 3,7 C 71 % 1008,1 hPa 0,0 l/m 5,1 km/h N -1,0 C 3,7 C 14,1 km/h
15.01.2016 08:00 3,8 C 71 % 1008,1 hPa 0,0 l/m 3,8 km/h N -1,1 C 3,8 C 14,1 km/h
15.01.2016 09:00 4,2 C 68 % 1008,4 hPa 0,0 l/m 6,6 km/h N -1,1 C 2,9 C 14,9 km/h
15.01.2016 10:00 4,5 C 66 % 1008,3 hPa 0,0 l/m 8,6 km/h N -1,2 C 2,6 C 18,9 km/h
15.01.2016 11:00 4,8 C 65 % 1008,0 hPa 0,0 l/m 10,0 km/h N -1,3 C 1,9 C 25,4 km/h
15.01.2016 12:00 4,9 C 63 % 1007,9 hPa 0,0 l/m 14,6 km/h N -1,7 C -0,8 C 31,4 km/h
15.01.2016 13:00 4,9 C 57 % 1007,8 hPa 0,0 l/m 14,7 km/h N -2,8 C -0,7 C 33,0 km/h
15.01.2016 14:00 4,8 C 58 % 1007,8 hPa 0,0 l/m 12,1 km/h N -2,8 C 0,6 C 34,2 km/h
15.01.2016 15:00 3,9 C 64 % 1008,4 hPa 0,0 l/m 12,2 km/h N -2,3 C -0,5 C 29,3 km/h
15.01.2016 16:00 3,0 C 69 % 1008,8 hPa 0,0 l/m 7,1 km/h N -2,1 C 2,1 C 21,3 km/h
15.01.2016 17:00 2,8 C 70 % 1009,0 hPa 0,0 l/m 8,8 km/h N -2,2 C 0,7 C 27,0 km/h
15.01.2016 18:00 2,7 C 68 % 1009,3 hPa 0,0 l/m 8,2 km/h N -2,6 C 1,0 C 24,9 km/h
15.01.2016 19:00 2,3 C 70 % 1009,5 hPa 0,0 l/m 9,0 km/h N -2,7 C -0,1 C 30,2 km/h
15.01.2016 20:00 2,1 C 71 % 1010,2 hPa 0,0 l/m 7,3 km/h N -2,7 C 1,2 C 20,9 km/h
15.01.2016 21:00 2,1 C 70 % 1010,5 hPa 0,0 l/m 8,5 km/h N -2,8 C 0,2 C 20,9 km/h
15.01.2016 22:00 2,0 C 71 % 1010,9 hPa 0,0 l/m 7,3 km/h N -2,8 C 1,2 C 20,9 km/h
15.01.2016 23:00 2,0 C 71 % 1011,2 hPa 0,0 l/m 9,3 km/h N -2,8 C -0,5 C 24,5 km/h
16.01.2016 00:00 1,8 C 71 % 1011,1 hPa 0,0 l/m 9,4 km/h N -2,8 C -0,9 C 23,3 km/h
16.01.2016 01:00 2,0 C 73 % 1011,4 hPa 0,0 l/m 8,6 km/h N -2,4 C -0,0 C 25,0 km/h
16.01.2016 02:00 1,8 C 76 % 1011,8 hPa 0,0 l/m 7,8 km/h N -2,1 C 0,5 C 24,1 km/h
16.01.2016 03:00 1,7 C 77 % 1012,0 hPa 0,0 l/m 6,2 km/h N -1,9 C 1,5 C 17,3 km/h
16.01.2016 04:00 1,8 C 77 % 1012,2 hPa 0,0 l/m 9,2 km/h N -1,9 C -0,8 C 20,1 km/h
16.01.2016 05:00 1,3 C 81 % 1012,9 hPa 0,0 l/m 6,8 km/h N -1,6 C 0,9 C 14,1 km/h
16.01.2016 06:00 1,0 C 83 % 1013,5 hPa 0,0 l/m 3,5 km/h N -1,7 C 1,0 C 9,7 km/h
16.01.2016 07:00 0,8 C 83 % 1014,6 hPa 0,0 l/m 6,3 km/h N -1,8 C 0,3 C 17,3 km/h
16.01.2016 08:00 0,5 C 81 % 1015,8 hPa 0,0 l/m 5,1 km/h N -2,4 C 0,0 C 12,9 km/h
16.01.2016 09:00 0,9 C 79 % 1016,5 hPa 0,0 l/m 8,7 km/h N -2,3 C -1,3 C 18,9 km/h
16.01.2016 10:00 1,3 C 77 % 1017,1 hPa 0,0 l/m 8,5 km/h N -2,3 C -0,8 C 19,3 km/h
16.01.2016 11:00 1,4 C 75 % 1017,3 hPa 0,0 l/m 7,5 km/h N -2,6 C 0,2 C 16,5 km/h
16.01.2016 12:00 1,3 C 71 % 1017,7 hPa 0,0 l/m 9,9 km/h N -3,5 C -1,9 C 19,7 km/h
16.01.2016 13:00 1,3 C 68 % 1017,9 hPa 0,0 l/m 12,3 km/h N -4,1 C -3,8 C 24,5 km/h
16.01.2016 14:00 1,3 C 64 % 1018,1 hPa 0,0 l/m 13,3 km/h N -4,8 C -4,3 C 24,5 km/h
16.01.2016 15:00 1,0 C 65 % 1018,5 hPa 0,0 l/m 10,1 km/h N -4,9 C -2,3 C 21,7 km/h
16.01.2016 16:00 0,7 C 67 % 1018,7 hPa 0,0 l/m 8,4 km/h N -4,7 C -1,2 C 20,9 km/h
16.01.2016 17:00 0,7 C 65 % 1019,2 hPa 0,0 l/m 6,9 km/h N -5,0 C 0,0 C 18,1 km/h
16.01.2016 18:00 0,8 C 65 % 1019,7 hPa 0,0 l/m 6,6 km/h N -5,1 C 0,5 C 18,9 km/h
16.01.2016 19:00 0,5 C 69 % 1019,8 hPa 0,0 l/m 5,3 km/h N -4,5 C -0,2 C 12,9 km/h
16.01.2016 20:00 0,2 C 70 % 1019,8 hPa 0,0 l/m 3,1 km/h N -4,7 C 0,2 C 8,9 km/h
16.01.2016 21:00 0,2 C 69 % 1019,3 hPa 0,0 l/m 7,3 km/h N -4,8 C -0,9 C 15,3 km/h
16.01.2016 22:00 0,1 C 70 % 1018,9 hPa 0,0 l/m 7,2 km/h N -4,8 C -0,8 C 16,1 km/h
16.01.2016 23:00 -0,2 C 72 % 1018,7 hPa 0,0 l/m 5,4 km/h N -4,7 C -0,2 C 14,5 km/h
17.01.2016 00:00 -0,4 C 74 % 1018,3 hPa 0,0 l/m 4,8 km/h N -4,5 C -0,4 C 11,3 km/h
17.01.2016 01:00 -0,6 C 75 % 1017,7 hPa 0,0 l/m 2,6 km/h N -4,5 C -0,6 C 8,0 km/h
17.01.2016 02:00 -0,5 C 76 % 1017,2 hPa 0,0 l/m 2,9 km/h N -4,2 C -0,5 C 7,2 km/h
17.01.2016 03:00 -0,4 C 76 % 1016,8 hPa 0,0 l/m 3,2 km/h N -4,1 C -0,4 C 7,6 km/h
17.01.2016 04:00 -0,5 C 77 % 1016,4 hPa 0,0 l/m 1,4 km/h N -4,0 C -0,5 C 5,6 km/h
17.01.2016 05:00 -0,6 C 78 % 1016,0 hPa 0,0 l/m 1,8 km/h N -4,0 C -0,6 C 5,6 km/h
17.01.2016 06:00 -0,8 C 79 % 1015,9 hPa 0,0 l/m 2,5 km/h N -4,0 C -0,8 C 7,2 km/h
17.01.2016 07:00 -0,9 C 80 % 1016,1 hPa 0,0 l/m 2,7 km/h N -3,9 C -0,9 C 8,0 km/h
17.01.2016 08:00 -1,4 C 83 % 1016,3 hPa 0,0 l/m 0,8 km/h N -4,0 C -1,4 C 3,6 km/h
17.01.2016 09:00 -1,7 C 84 % 1016,8 hPa 0,0 l/m 1,6 km/h N -4,0 C -1,7 C 5,6 km/h
17.01.2016 10:00 -2,3 C 84 % 1017,1 hPa 0,0 l/m 3,6 km/h N -4,6 C -2,3 C 8,0 km/h
17.01.2016 11:00 -2,3 C 84 % 1016,9 hPa 0,0 l/m 4,8 km/h N -4,7 C -2,3 C 9,6 km/h
17.01.2016 12:00 -2,0 C 81 % 1016,9 hPa 0,0 l/m 7,3 km/h N -4,8 C -3,3 C 14,9 km/h
17.01.2016 13:00 -1,4 C 71 % 1017,1 hPa 0,3 l/m 8,8 km/h N -6,1 C -3,9 C 19,7 km/h
17.01.2016 14:00 -1,3 C 68 % 1017,3 hPa 0,3 l/m 9,8 km/h N -6,5 C -4,7 C 19,3 km/h
17.01.2016 15:00 -1,5 C 72 % 1017,9 hPa 0,0 l/m 6,9 km/h N -6,0 C -2,3 C 19,3 km/h
17.01.2016 16:00 -2,2 C 76 % 1018,6 hPa 0,0 l/m 5,4 km/h N -5,8 C -2,2 C 10,9 km/h
17.01.2016 17:00 -2,2 C 79 % 1019,3 hPa 0,0 l/m 5,0 km/h N -5,4 C -2,2 C 15,3 km/h
17.01.2016 18:00 -2,0 C 77 % 1020,0 hPa 0,0 l/m 5,8 km/h N -5,5 C -2,1 C 14,5 km/h
17.01.2016 19:00 -2,5 C 69 % 1021,0 hPa 0,0 l/m 6,5 km/h N -7,4 C -2,8 C 18,5 km/h
17.01.2016 20:00 -3,1 C 67 % 1021,7 hPa 0,0 l/m 6,7 km/h N -8,3 C -3,5 C 16,9 km/h
17.01.2016 21:00 -3,7 C 68 % 1022,3 hPa 0,0 l/m 5,1 km/h N -8,7 C -3,7 C 13,7 km/h
17.01.2016 22:00 -4,1 C 70 % 1022,8 hPa 0,0 l/m 4,3 km/h N -8,8 C -4,1 C 10,1 km/h
17.01.2016 23:00 -4,0 C 71 % 1023,3 hPa 0,0 l/m 4,9 km/h N -8,4 C -4,0 C 12,5 km/h
Min-Datum _ 17.01.16 14.01.16 11.01.16 - 11.01.16 - 17.01.16 17.01.16 11.01.16
_ Min-Zeit 22:31 11:30 20:00 - 01:00 - 22:31 14:31 01:45
Minimum _ -4,2 C 49 % 990,9 hPa - 0,0 km/h - -8,8 C -6,9 C 0,0 km/h
Max-Datum _ 12.01.16 11.01.16 17.01.16 13.01.16 13.01.16 - 11.01.16 12.01.16 13.01.16
_ Max-Zeit 12:30 19:45 23:46 21:16 18:46 - 19:45 01:00 22:46
Maximum _ 10,4 C 84 % 1023,4 hPa 1,0 l/m 28,4 km/h
N
- 5,6 C 9,3 C 59,5 km/h
N
Durchschnitt _ 3,5 C 70 % 1008,2 hPa #4,2 l/m 7,7 km/h N -1,5 C 1,5 C 20,5 km/h